createdAt,value
2022-08-31T00:00:10.398Z,102583.03
2022-08-31T00:02:57.077Z,102625.09
2022-08-31T00:05:24.695Z,102613.44
2022-08-31T00:07:52.652Z,102610.28
2022-08-31T00:10:32.228Z,102604.13
2022-08-31T00:13:01.229Z,102636.53
2022-08-31T00:15:30.515Z,102592.34
2022-08-31T00:17:57.500Z,102634.31
2022-08-31T00:20:33.238Z,102620.13
2022-08-31T00:23:12.487Z,102611.00
2022-08-31T00:25:41.629Z,102624.28
2022-08-31T00:28:09.403Z,102589.63
2022-08-31T00:30:37.005Z,102591.59
2022-08-31T00:33:05.327Z,102613.22
2022-08-31T00:35:36.237Z,102622.81
2022-08-31T00:38:05.735Z,102615.91
2022-08-31T00:40:32.914Z,102587.19
2022-08-31T00:43:05.051Z,102580.41
2022-08-31T00:45:32.484Z,102587.31
2022-08-31T00:47:59.299Z,102569.00
2022-08-31T00:50:26.613Z,102604.53
2022-08-31T00:52:57.721Z,102553.22
2022-08-31T00:55:34.009Z,102610.47
2022-08-31T00:58:06.666Z,102580.81
2022-08-31T01:00:33.528Z,102571.31
2022-08-31T01:03:02.311Z,102550.41
2022-08-31T01:05:31.052Z,102596.34
2022-08-31T01:08:00.304Z,102615.16
2022-08-31T01:10:32.061Z,102583.81
2022-08-31T01:12:59.761Z,102583.72
2022-08-31T01:15:28.589Z,102621.38
2022-08-31T01:17:57.623Z,102581.59
2022-08-31T01:20:33.425Z,102586.72
2022-08-31T01:23:22.446Z,102622.41
2022-08-31T01:25:51.198Z,102593.75
2022-08-31T01:28:18.480Z,102590.28
2022-08-31T01:31:02.327Z,102620.38
2022-08-31T01:33:30.039Z,102612.28
2022-08-31T01:35:57.984Z,102570.59
2022-08-31T01:38:25.499Z,102590.13
2022-08-31T01:40:55.970Z,102580.03
2022-08-31T01:43:23.759Z,102580.88
2022-08-31T01:45:51.507Z,102615.69
2022-08-31T01:48:18.384Z,102613.38
2022-08-31T01:50:45.301Z,102588.53
2022-08-31T01:53:12.201Z,102608.25
2022-08-31T01:55:38.981Z,102592.66
2022-08-31T01:58:05.902Z,102570.41
2022-08-31T02:00:33.066Z,102547.22
2022-08-31T02:03:02.001Z,102607.81
2022-08-31T02:05:29.335Z,102591.16
2022-08-31T02:07:57.216Z,102606.13
2022-08-31T02:10:24.908Z,102543.69
2022-08-31T02:12:51.728Z,102581.59
2022-08-31T02:15:18.696Z,102578.41
2022-08-31T02:17:45.712Z,102559.09
2022-08-31T02:20:15.364Z,102537.97
2022-08-31T02:22:42.324Z,102612.78
2022-08-31T02:25:09.956Z,102602.94
2022-08-31T02:27:37.864Z,102589.38
2022-08-31T02:30:12.653Z,102611.63
2022-08-31T02:32:39.663Z,102553.84
2022-08-31T02:35:07.536Z,102585.44
2022-08-31T02:37:34.375Z,102580.97
2022-08-31T02:40:03.964Z,102610.56
2022-08-31T02:42:52.123Z,102601.75
2022-08-31T02:45:18.820Z,102601.63
2022-08-31T02:47:45.632Z,102603.19
2022-08-31T02:50:12.364Z,102598.16
2022-08-31T02:52:39.165Z,102573.94
2022-08-31T02:55:06.610Z,102554.53
2022-08-31T02:57:33.530Z,102565.88
2022-08-31T03:00:00.267Z,102600.56
2022-08-31T03:02:31.714Z,102534.97
2022-08-31T03:05:01.732Z,102602.53
2022-08-31T03:07:28.472Z,102605.03
2022-08-31T03:09:55.348Z,102581.69
2022-08-31T03:12:22.132Z,102567.91
2022-08-31T03:14:48.875Z,102557.53
2022-08-31T03:17:15.647Z,102534.06
2022-08-31T03:19:42.386Z,102556.38
2022-08-31T03:22:09.356Z,102566.06
2022-08-31T03:24:36.140Z,102581.56
2022-08-31T03:27:02.851Z,102560.25
2022-08-31T03:29:29.572Z,102594.63
2022-08-31T03:31:56.521Z,102598.25
2022-08-31T03:34:23.293Z,102551.19
2022-08-31T03:36:50.060Z,102544.06
2022-08-31T03:39:16.851Z,102526.78
2022-08-31T03:41:43.644Z,102558.00
2022-08-31T03:44:10.398Z,102553.50
2022-08-31T03:46:37.955Z,102545.81
2022-08-31T03:49:04.760Z,102572.19
2022-08-31T03:51:31.515Z,102538.66
2022-08-31T03:53:58.236Z,102546.94
2022-08-31T03:56:25.020Z,102520.06
2022-08-31T03:58:52.001Z,102551.47
2022-08-31T04:01:18.775Z,102577.22
2022-08-31T04:03:45.523Z,102567.88
2022-08-31T04:06:13.599Z,102586.56
2022-08-31T04:08:40.902Z,102574.28
2022-08-31T04:11:18.379Z,102595.06
2022-08-31T04:13:52.268Z,102549.44
2022-08-31T04:16:22.109Z,102561.41
2022-08-31T04:18:48.860Z,102582.22
2022-08-31T04:21:23.793Z,102586.53
2022-08-31T04:23:52.112Z,102575.28
2022-08-31T04:26:40.967Z,102576.53
2022-08-31T04:29:13.160Z,102549.03
2022-08-31T04:31:40.668Z,102559.44
2022-08-31T04:34:07.428Z,102556.41
2022-08-31T04:36:34.164Z,102537.53
2022-08-31T04:39:03.163Z,102594.28
2022-08-31T04:41:32.004Z,102594.72
2022-08-31T04:44:00.410Z,102579.97
2022-08-31T04:46:28.279Z,102558.88
2022-08-31T04:48:55.820Z,102569.00
2022-08-31T04:51:28.643Z,102585.25
2022-08-31T04:53:56.072Z,102590.56
2022-08-31T04:56:30.040Z,102599.41
2022-08-31T04:59:00.560Z,102578.69
2022-08-31T05:01:33.556Z,102593.75
2022-08-31T05:04:10.931Z,102566.84
2022-08-31T05:06:40.946Z,102599.59
2022-08-31T05:09:11.569Z,102591.25
2022-08-31T05:11:39.195Z,102593.81
2022-08-31T05:14:07.798Z,102566.88
2022-08-31T05:16:38.327Z,102586.47
2022-08-31T05:19:05.357Z,102565.66
2022-08-31T05:21:37.519Z,102600.34
2022-08-31T05:24:36.024Z,102600.97
2022-08-31T05:27:03.300Z,102562.47
2022-08-31T05:32:11.820Z,102606.38
2022-08-31T05:34:38.977Z,102565.84
2022-08-31T05:37:06.726Z,102579.53
2022-08-31T05:39:38.209Z,102598.47
2022-08-31T05:42:11.012Z,102579.63
2022-08-31T06:16:54.264Z,102623.72
2022-08-31T06:35:36.452Z,102610.91
2022-08-31T11:41:47.013Z,102629.72
2022-08-31T11:44:39.683Z,102632.41
2022-08-31T11:47:07.418Z,102600.81
2022-08-31T11:49:46.681Z,102596.03
2022-08-31T11:52:32.293Z,102599.94
2022-08-31T11:55:06.824Z,102587.22
2022-08-31T11:58:10.145Z,102619.06
2022-08-31T12:00:58.267Z,102626.81
2022-08-31T12:03:53.081Z,102592.97
2022-08-31T12:06:27.718Z,102620.03
2022-08-31T12:09:28.506Z,102619.66
2022-08-31T12:12:06.650Z,102619.28
2022-08-31T12:14:51.480Z,102621.66
2022-08-31T12:17:48.567Z,102623.19
2022-08-31T12:21:17.165Z,102623.03
2022-08-31T12:23:53.131Z,102614.47
2022-08-31T12:26:34.287Z,102613.19
2022-08-31T12:29:14.640Z,102606.22
2022-08-31T12:31:43.934Z,102589.03
2022-08-31T12:34:19.708Z,102584.56
2022-08-31T12:36:50.564Z,102575.09
2022-08-31T12:39:28.929Z,102565.72
2022-08-31T12:41:59.142Z,102590.38
2022-08-31T12:44:31.310Z,102571.72
2022-08-31T12:47:24.436Z,102565.34
2022-08-31T12:50:22.104Z,102535.06
2022-08-31T12:53:24.165Z,102593.66
2022-08-31T12:56:28.042Z,102568.59
2022-08-31T12:59:15.098Z,102592.13
2022-08-31T13:01:46.796Z,102570.13
2022-08-31T13:04:16.208Z,102563.06
2022-08-31T13:06:45.254Z,102599.22
2022-08-31T13:09:26.385Z,102597.78
2022-08-31T13:11:57.169Z,102569.59
2022-08-31T13:14:27.837Z,102558.69
2022-08-31T17:18:44.335Z,102449.09
2022-08-31T17:21:19.025Z,102393.19
2022-08-31T17:23:48.652Z,102400.50
2022-08-31T17:26:16.184Z,102436.31
2022-08-31T17:28:44.430Z,102425.63
2022-08-31T17:31:11.283Z,102440.31
2022-08-31T17:36:20.192Z,102386.09
2022-08-31T17:38:48.788Z,102458.06
2022-08-31T18:14:01.253Z,102431.38
2022-08-31T18:27:19.473Z,102413.59
2022-08-31T18:35:22.900Z,102454.25
2022-08-31T18:37:49.670Z,102424.25
2022-08-31T18:40:35.028Z,102419.91
2022-08-31T18:43:20.272Z,102418.38
2022-08-31T18:45:50.604Z,102436.34
2022-08-31T18:48:27.146Z,102448.19
2022-08-31T18:50:55.675Z,102450.34
2022-08-31T18:53:29.254Z,102439.34
2022-08-31T18:56:10.864Z,102444.97
2022-08-31T18:58:38.529Z,102449.00
2022-08-31T19:01:07.494Z,102461.78
2022-08-31T19:03:34.300Z,102431.16
2022-08-31T19:06:00.957Z,102430.91
2022-08-31T19:08:28.839Z,102441.63
2022-08-31T19:10:59.017Z,102417.56
2022-08-31T19:13:32.181Z,102454.22
2022-08-31T19:16:10.746Z,102456.44
2022-08-31T19:18:42.345Z,102427.38
2022-08-31T19:21:22.359Z,102444.25
2022-08-31T19:23:49.710Z,102421.56
2022-08-31T19:26:30.274Z,102426.53
2022-08-31T19:29:06.075Z,102423.78
2022-08-31T19:31:38.704Z,102461.00
2022-08-31T19:34:07.080Z,102447.31
2022-08-31T19:36:37.499Z,102430.75
2022-08-31T19:39:06.782Z,102465.59
2022-08-31T19:41:35.224Z,102464.84
2022-08-31T19:44:08.130Z,102429.28
2022-08-31T19:46:36.208Z,102460.19
2022-08-31T19:49:03.645Z,102434.75
2022-08-31T19:51:32.404Z,102434.84
2022-08-31T19:54:00.955Z,102426.44
2022-08-31T19:56:30.559Z,102428.78
2022-08-31T19:58:59.420Z,102462.03
2022-08-31T20:01:34.346Z,102460.38
2022-08-31T20:04:16.338Z,102461.47
2022-08-31T20:06:45.540Z,102430.53
2022-08-31T20:09:13.380Z,102453.63
2022-08-31T20:11:40.812Z,102428.63
2022-08-31T20:14:07.716Z,102424.88
2022-08-31T20:16:41.849Z,102455.84
2022-08-31T20:19:11.385Z,102463.66
2022-08-31T20:21:40.647Z,102434.91
2022-08-31T20:24:13.002Z,102458.38
2022-08-31T20:26:47.418Z,102449.78
2022-08-31T20:29:20.742Z,102452.53
2022-08-31T20:31:50.241Z,102442.84
2022-08-31T20:34:18.903Z,102451.63
2022-08-31T20:36:49.327Z,102454.44
2022-08-31T20:39:17.712Z,102412.13
2022-08-31T20:41:48.492Z,102435.47
2022-08-31T20:44:29.025Z,102450.13
2022-08-31T20:47:17.624Z,102454.44
2022-08-31T20:49:53.804Z,102431.00
2022-08-31T20:52:22.234Z,102413.97
2022-08-31T20:54:52.394Z,102409.97
2022-08-31T20:57:32.274Z,102417.72
2022-08-31T21:00:04.487Z,102422.13
2022-08-31T21:02:31.972Z,102408.88
2022-08-31T21:05:10.329Z,102399.88
2022-08-31T21:07:45.870Z,102419.75
2022-08-31T21:10:12.610Z,102453.50
2022-08-31T21:12:39.363Z,102361.38
2022-08-31T21:15:11.243Z,102417.38
2022-08-31T21:17:40.665Z,102407.00
2022-08-31T21:20:08.344Z,102444.38
2022-08-31T21:22:35.225Z,102406.31
2022-08-31T21:25:02.339Z,102438.25
2022-08-31T21:27:30.056Z,102422.72
2022-08-31T21:29:57.226Z,102438.44
2022-08-31T21:32:24.100Z,102396.16
2022-08-31T21:34:55.737Z,102435.16
2022-08-31T21:37:22.897Z,102407.75
2022-08-31T21:39:51.001Z,102413.13
2022-08-31T21:42:19.346Z,102438.44
2022-08-31T21:44:46.100Z,102440.97
2022-08-31T21:47:15.191Z,102439.97
2022-08-31T21:49:43.924Z,102429.50
2022-08-31T21:52:12.447Z,102413.16
2022-08-31T21:54:41.042Z,102385.34
2022-08-31T21:57:07.764Z,102400.81
2022-08-31T21:59:36.621Z,102412.09
2022-08-31T22:02:06.834Z,102427.16
2022-08-31T22:04:35.369Z,102434.03
2022-08-31T22:07:04.754Z,102388.38
2022-08-31T22:09:31.775Z,102405.66
2022-08-31T22:12:00.006Z,102435.97
2022-08-31T22:14:32.038Z,102389.03
2022-08-31T22:17:05.557Z,102400.44
2022-08-31T22:19:36.737Z,102420.22
2022-08-31T22:22:07.170Z,102378.66
2022-08-31T22:24:36.115Z,102428.16
2022-08-31T22:27:06.654Z,102426.53
2022-08-31T22:29:35.417Z,102388.59
2022-08-31T22:32:08.664Z,102377.94
2022-08-31T22:34:36.199Z,102411.56
2022-08-31T22:37:04.041Z,102410.03
2022-08-31T22:39:31.224Z,102359.97
2022-08-31T22:41:59.916Z,102407.63
2022-08-31T22:44:34.303Z,102380.75
2022-08-31T22:47:01.453Z,102375.75
2022-08-31T22:49:28.189Z,102360.03
2022-08-31T22:51:55.047Z,102398.16
2022-08-31T22:54:22.996Z,102399.69
2022-08-31T22:56:50.874Z,102372.81
2022-08-31T22:59:24.807Z,102398.69
2022-08-31T23:01:55.016Z,102361.59
2022-08-31T23:04:26.401Z,102402.41
2022-08-31T23:06:56.277Z,102396.41
2022-08-31T23:09:27.879Z,102395.72
2022-08-31T23:11:56.712Z,102392.94
2022-08-31T23:14:24.002Z,102385.94
2022-08-31T23:16:57.284Z,102397.25
2022-08-31T23:19:26.467Z,102384.63
2022-08-31T23:21:57.678Z,102344.31
2022-08-31T23:24:37.435Z,102377.38
2022-08-31T23:27:05.882Z,102380.75
2022-08-31T23:29:35.943Z,102379.00
2022-08-31T23:32:04.533Z,102372.06
2022-08-31T23:34:34.036Z,102345.53
2022-08-31T23:37:00.961Z,102357.63
2022-08-31T23:39:27.735Z,102335.81
2022-08-31T23:41:54.563Z,102339.34
2022-08-31T23:44:21.778Z,102329.94
2022-08-31T23:46:49.281Z,102367.00
2022-08-31T23:49:20.077Z,102361.69
2022-08-31T23:51:47.838Z,102363.53
2022-08-31T23:54:16.363Z,102317.56
2022-08-31T23:56:46.414Z,102305.47
2022-08-31T23:59:19.854Z,102333.59
